AAL2149 KSYR-KPVD
Flight info
| Callsign | AAL2149 |
|---|---|
| Flight time | 0h 50m |
| Altitude | 19000 |
| Route | ALB WIPOR4 |
| Aircraft | B738/M-VGDW/C |
Departure
| Time | 2026-04-27 22:10 |
|---|---|
| Airport | Syracuse Hancock International Airport (KSYR) |
Arrival
| Time | 2026-04-27 23:00 |
|---|---|
| Airport | Rhode Island T. F. Green International Airport (KPVD) |
| Time | Latitude | Longitude | Altitude | Speed | Heading |
|---|---|---|---|---|---|
| 2026-04-27 21:42 | 43.11209 | -76.11161 | 426 ft | 0 kts | 301° |
| 2026-04-27 22:01 | 43.11203 | -76.11147 | 427 ft | 2 kts | 301° |
| 2026-04-27 22:01 | 43.11198 | -76.11125 | 429 ft | 3 kts | 247° |
| 2026-04-27 22:02 | 43.11200 | -76.11120 | 430 ft | 0 kts | 231° |
| 2026-04-27 22:03 | 43.11199 | -76.11122 | 429 ft | 1 kts | 247° |
| 2026-04-27 22:04 | 43.11196 | -76.11144 | 429 ft | 0 kts | 244° |
| 2026-04-27 22:05 | 43.11187 | -76.11151 | 431 ft | 5 kts | 209° |
| 2026-04-27 22:05 | 43.11130 | -76.11153 | 420 ft | 12 kts | 183° |
| 2026-04-27 22:05 | 43.11025 | -76.11153 | 423 ft | 17 kts | 196° |
| 2026-04-27 22:05 | 43.10988 | -76.11284 | 427 ft | 17 kts | 266° |
| 2026-04-27 22:06 | 43.10986 | -76.11443 | 422 ft | 17 kts | 266° |
| 2026-04-27 22:06 | 43.10978 | -76.11597 | 424 ft | 16 kts | 264° |
| 2026-04-27 22:06 | 43.10970 | -76.11748 | 423 ft | 17 kts | 270° |
| 2026-04-27 22:06 | 43.10969 | -76.11912 | 423 ft | 20 kts | 267° |
| 2026-04-27 22:07 | 43.10962 | -76.12129 | 427 ft | 23 kts | 268° |
| 2026-04-27 22:07 | 43.10955 | -76.12343 | 420 ft | 22 kts | 272° |
| 2026-04-27 22:07 | 43.10948 | -76.12551 | 432 ft | 21 kts | 263° |
| 2026-04-27 22:07 | 43.10934 | -76.12607 | 434 ft | 0 kts | 234° |
| 2026-04-27 22:08 | 43.10932 | -76.12610 | 423 ft | 4 kts | 228° |
| 2026-04-27 22:08 | 43.10865 | -76.12604 | 427 ft | 16 kts | 160° |
| 2026-04-27 22:09 | 43.10820 | -76.12563 | 425 ft | 6 kts | 90° |
| 2026-04-27 22:09 | 43.10822 | -76.12503 | 433 ft | 9 kts | 87° |
| 2026-04-27 22:09 | 43.10834 | -76.12133 | 425 ft | 87 kts | 88° |
| 2026-04-27 22:09 | 43.10877 | -76.10891 | 523 ft | 165 kts | 87° |
| 2026-04-27 22:10 | 43.10857 | -76.09134 | 1144 ft | 202 kts | 94° |
| 2026-04-27 22:10 | 43.10820 | -76.07248 | 2433 ft | 193 kts | 89° |
| 2026-04-27 22:10 | 43.10897 | -76.05494 | 3763 ft | 183 kts | 89° |
| 2026-04-27 22:10 | 43.11008 | -76.03527 | 3953 ft | 231 kts | 88° |
| 2026-04-27 22:11 | 43.11133 | -76.01206 | 4413 ft | 258 kts | 88° |
| 2026-04-27 22:11 | 43.11052 | -75.98750 | 5458 ft | 260 kts | 103° |
| 2026-04-27 22:11 | 43.10634 | -75.96325 | 6538 ft | 263 kts | 105° |
| 2026-04-27 22:11 | 43.10197 | -75.93896 | 7492 ft | 269 kts | 105° |
| 2026-04-27 22:12 | 43.09753 | -75.91376 | 8441 ft | 275 kts | 104° |
| 2026-04-27 22:12 | 43.09310 | -75.88794 | 9365 ft | 283 kts | 103° |
| 2026-04-27 22:12 | 43.08867 | -75.86136 | 10278 ft | 290 kts | 103° |
| 2026-04-27 22:12 | 43.08408 | -75.83335 | 10672 ft | 316 kts | 102° |
| 2026-04-27 22:13 | 43.07922 | -75.80325 | 11108 ft | 336 kts | 102° |
| 2026-04-27 22:13 | 43.07417 | -75.77169 | 11917 ft | 343 kts | 101° |
| 2026-04-27 22:13 | 43.06908 | -75.73959 | 12813 ft | 347 kts | 101° |
| 2026-04-27 22:13 | 43.06392 | -75.70703 | 13693 ft | 353 kts | 101° |
| 2026-04-27 22:14 | 43.05876 | -75.67439 | 14493 ft | 358 kts | 100° |
| 2026-04-27 22:14 | 43.05342 | -75.64060 | 15358 ft | 361 kts | 100° |
| 2026-04-27 22:14 | 43.04816 | -75.60732 | 16185 ft | 364 kts | 100° |
| 2026-04-27 22:14 | 43.04272 | -75.57302 | 17089 ft | 365 kts | 100° |
| 2026-04-27 22:15 | 43.03735 | -75.53921 | 18138 ft | 362 kts | 99° |
| 2026-04-27 22:15 | 43.03207 | -75.50603 | 18745 ft | 362 kts | 99° |
| 2026-04-27 22:15 | 43.02673 | -75.47249 | 18998 ft | 363 kts | 99° |
| 2026-04-27 22:15 | 43.02134 | -75.43871 | 19003 ft | 364 kts | 99° |
| 2026-04-27 22:16 | 43.01595 | -75.40499 | 19018 ft | 362 kts | 99° |
| 2026-04-27 22:16 | 43.01056 | -75.37141 | 19021 ft | 361 kts | 99° |
| 2026-04-27 22:16 | 43.00519 | -75.33794 | 19023 ft | 361 kts | 99° |
| 2026-04-27 22:16 | 42.99981 | -75.30451 | 19024 ft | 361 kts | 99° |
| 2026-04-27 22:17 | 42.99441 | -75.27101 | 19026 ft | 361 kts | 99° |
| 2026-04-27 22:17 | 42.98902 | -75.23760 | 19025 ft | 361 kts | 99° |
| 2026-04-27 22:17 | 42.98360 | -75.20410 | 19029 ft | 361 kts | 99° |
| 2026-04-27 22:17 | 42.97817 | -75.17060 | 19033 ft | 362 kts | 99° |
| 2026-04-27 22:18 | 42.97271 | -75.13699 | 19035 ft | 362 kts | 99° |
| 2026-04-27 22:18 | 42.96724 | -75.10341 | 19034 ft | 362 kts | 99° |
| 2026-04-27 22:18 | 42.96176 | -75.06982 | 19038 ft | 362 kts | 99° |
| 2026-04-27 22:18 | 42.95627 | -75.03621 | 19046 ft | 363 kts | 98° |
| 2026-04-27 22:19 | 42.95077 | -75.00265 | 19097 ft | 359 kts | 98° |
| 2026-04-27 22:19 | 42.94554 | -74.97084 | 19203 ft | 358 kts | 98° |
| 2026-04-27 22:19 | 42.94014 | -74.93794 | 19235 ft | 363 kts | 98° |
| 2026-04-27 22:19 | 42.93462 | -74.90434 | 19231 ft | 363 kts | 98° |
| 2026-04-27 22:20 | 42.92908 | -74.87079 | 19230 ft | 361 kts | 98° |
| 2026-04-27 22:20 | 42.92357 | -74.83748 | 19232 ft | 360 kts | 98° |
| 2026-04-27 22:20 | 42.91804 | -74.80417 | 19237 ft | 359 kts | 98° |
| 2026-04-27 22:20 | 42.91253 | -74.77097 | 19239 ft | 359 kts | 98° |
| 2026-04-27 22:21 | 42.90700 | -74.73771 | 19245 ft | 359 kts | 99° |
| 2026-04-27 22:21 | 42.90146 | -74.70445 | 19242 ft | 360 kts | 99° |
| 2026-04-27 22:21 | 42.89590 | -74.67109 | 19241 ft | 361 kts | 99° |
| 2026-04-27 22:21 | 42.89032 | -74.63771 | 19240 ft | 361 kts | 99° |
| 2026-04-27 22:22 | 42.88472 | -74.60430 | 19238 ft | 362 kts | 99° |
| 2026-04-27 22:22 | 42.87910 | -74.57080 | 19239 ft | 362 kts | 99° |
| 2026-04-27 22:22 | 42.87339 | -74.53674 | 19253 ft | 374 kts | 99° |
| 2026-04-27 22:22 | 42.86753 | -74.50185 | 19255 ft | 379 kts | 99° |
| 2026-04-27 22:23 | 42.86163 | -74.46699 | 19239 ft | 377 kts | 99° |
| 2026-04-27 22:23 | 42.85572 | -74.43213 | 19233 ft | 376 kts | 99° |
| 2026-04-27 22:23 | 42.84982 | -74.39742 | 19237 ft | 375 kts | 99° |
| 2026-04-27 22:23 | 42.84394 | -74.36285 | 19241 ft | 375 kts | 99° |
| 2026-04-27 22:24 | 42.83803 | -74.32821 | 19251 ft | 375 kts | 99° |
| 2026-04-27 22:24 | 42.83214 | -74.29362 | 19244 ft | 375 kts | 99° |
| 2026-04-27 22:24 | 42.82622 | -74.25900 | 19244 ft | 375 kts | 99° |
| 2026-04-27 22:24 | 42.82029 | -74.22431 | 19239 ft | 376 kts | 99° |
| 2026-04-27 22:25 | 42.81435 | -74.18968 | 19242 ft | 376 kts | 99° |
| 2026-04-27 22:25 | 42.80839 | -74.15504 | 19244 ft | 376 kts | 99° |
| 2026-04-27 22:25 | 42.80242 | -74.12034 | 19240 ft | 376 kts | 99° |
| 2026-04-27 22:25 | 42.79642 | -74.08560 | 19238 ft | 376 kts | 99° |
| 2026-04-27 22:26 | 42.79044 | -74.05099 | 19230 ft | 376 kts | 99° |
| 2026-04-27 22:26 | 42.78451 | -74.01677 | 19234 ft | 376 kts | 99° |
| 2026-04-27 22:26 | 42.77865 | -73.98298 | 19246 ft | 376 kts | 98° |
| 2026-04-27 22:26 | 42.77271 | -73.94879 | 19238 ft | 376 kts | 98° |
| 2026-04-27 22:27 | 42.76667 | -73.91406 | 19234 ft | 377 kts | 98° |
| 2026-04-27 22:27 | 42.76062 | -73.87938 | 19229 ft | 377 kts | 98° |
| 2026-04-27 22:27 | 42.75448 | -73.84473 | 19230 ft | 378 kts | 101° |
| 2026-04-27 22:27 | 42.74505 | -73.81120 | 19224 ft | 384 kts | 113° |
| 2026-04-27 22:28 | 42.73090 | -73.78016 | 19232 ft | 388 kts | 123° |
| 2026-04-27 22:28 | 42.71293 | -73.75261 | 19236 ft | 391 kts | 130° |
| 2026-04-27 22:28 | 42.69392 | -73.72614 | 19234 ft | 392 kts | 131° |
| 2026-04-27 22:28 | 42.67469 | -73.69982 | 19230 ft | 392 kts | 131° |
| 2026-04-27 22:29 | 42.65551 | -73.67353 | 19230 ft | 392 kts | 131° |
| 2026-04-27 22:29 | 42.63639 | -73.64714 | 19246 ft | 392 kts | 130° |
| 2026-04-27 22:29 | 42.61736 | -73.62070 | 19239 ft | 392 kts | 130° |
| 2026-04-27 22:29 | 42.59832 | -73.59414 | 19232 ft | 392 kts | 130° |
| 2026-04-27 22:30 | 42.57933 | -73.56759 | 19224 ft | 392 kts | 130° |
| 2026-04-27 22:30 | 42.56032 | -73.54101 | 19234 ft | 392 kts | 130° |
| 2026-04-27 22:30 | 42.54134 | -73.51449 | 19229 ft | 392 kts | 130° |
| 2026-04-27 22:30 | 42.52233 | -73.48796 | 19229 ft | 392 kts | 130° |
| 2026-04-27 22:31 | 42.50334 | -73.46144 | 19235 ft | 391 kts | 130° |
| 2026-04-27 22:31 | 42.48439 | -73.43499 | 19241 ft | 391 kts | 130° |
| 2026-04-27 22:31 | 42.46539 | -73.40854 | 19249 ft | 392 kts | 130° |
| 2026-04-27 22:31 | 42.44641 | -73.38214 | 19243 ft | 392 kts | 130° |
| 2026-04-27 22:32 | 42.42731 | -73.35562 | 19240 ft | 392 kts | 130° |
| 2026-04-27 22:32 | 42.40829 | -73.32924 | 19236 ft | 392 kts | 130° |
| 2026-04-27 22:32 | 42.38922 | -73.30282 | 19240 ft | 392 kts | 130° |
| 2026-04-27 22:32 | 42.37016 | -73.27646 | 19245 ft | 392 kts | 129° |
| 2026-04-27 22:33 | 42.35111 | -73.25012 | 19250 ft | 392 kts | 129° |
| 2026-04-27 22:33 | 42.33202 | -73.22376 | 19242 ft | 392 kts | 129° |
| 2026-04-27 22:33 | 42.31298 | -73.19748 | 19234 ft | 392 kts | 129° |
| 2026-04-27 22:33 | 42.29391 | -73.17119 | 19232 ft | 391 kts | 129° |
| 2026-04-27 22:34 | 42.27506 | -73.14521 | 19242 ft | 392 kts | 129° |
| 2026-04-27 22:34 | 42.25598 | -73.11896 | 19230 ft | 392 kts | 129° |
| 2026-04-27 22:34 | 42.23688 | -73.09268 | 19226 ft | 392 kts | 129° |
| 2026-04-27 22:34 | 42.21781 | -73.06646 | 19233 ft | 392 kts | 129° |
| 2026-04-27 22:35 | 42.19871 | -73.04024 | 19236 ft | 391 kts | 130° |
| 2026-04-27 22:35 | 42.17962 | -73.01403 | 19243 ft | 391 kts | 130° |
| 2026-04-27 22:35 | 42.16126 | -72.98887 | 19245 ft | 391 kts | 130° |
| 2026-04-27 22:35 | 42.14212 | -72.96268 | 19251 ft | 392 kts | 130° |
| 2026-04-27 22:36 | 42.12299 | -72.93661 | 19264 ft | 392 kts | 130° |
| 2026-04-27 22:36 | 42.10378 | -72.91040 | 19254 ft | 393 kts | 129° |
| 2026-04-27 22:36 | 42.08462 | -72.88420 | 19237 ft | 393 kts | 129° |
| 2026-04-27 22:36 | 42.06548 | -72.85804 | 19251 ft | 393 kts | 129° |
| 2026-04-27 22:37 | 42.04629 | -72.83180 | 19245 ft | 392 kts | 129° |
| 2026-04-27 22:37 | 42.02712 | -72.80564 | 19263 ft | 392 kts | 129° |
| 2026-04-27 22:37 | 42.00792 | -72.77948 | 19265 ft | 392 kts | 129° |
| 2026-04-27 22:37 | 41.98880 | -72.75348 | 19265 ft | 392 kts | 129° |
| 2026-04-27 22:38 | 41.96961 | -72.72740 | 19262 ft | 393 kts | 129° |
| 2026-04-27 22:38 | 41.95037 | -72.70129 | 19262 ft | 391 kts | 129° |
| 2026-04-27 22:38 | 41.93239 | -72.67491 | 19249 ft | 373 kts | 123° |
| 2026-04-27 22:38 | 41.91702 | -72.64788 | 19243 ft | 356 kts | 120° |
| 2026-04-27 22:39 | 41.90276 | -72.62169 | 19230 ft | 341 kts | 120° |
| 2026-04-27 22:39 | 41.88911 | -72.59644 | 19258 ft | 327 kts | 120° |
| 2026-04-27 22:39 | 41.87597 | -72.57224 | 19209 ft | 314 kts | 120° |
| 2026-04-27 22:39 | 41.86338 | -72.54923 | 19106 ft | 298 kts | 119° |
| 2026-04-27 22:40 | 41.85133 | -72.52733 | 19002 ft | 284 kts | 119° |
| 2026-04-27 22:40 | 41.83975 | -72.50632 | 18731 ft | 278 kts | 119° |
| 2026-04-27 22:40 | 41.82829 | -72.48559 | 18333 ft | 276 kts | 120° |
| 2026-04-27 22:40 | 41.81686 | -72.46495 | 17912 ft | 275 kts | 119° |
| 2026-04-27 22:41 | 41.80553 | -72.44448 | 17515 ft | 273 kts | 120° |
| 2026-04-27 22:41 | 41.79424 | -72.42412 | 17116 ft | 271 kts | 120° |
| 2026-04-27 22:41 | 41.78317 | -72.40418 | 16734 ft | 269 kts | 120° |
| 2026-04-27 22:41 | 41.77203 | -72.38413 | 16376 ft | 269 kts | 121° |
| 2026-04-27 22:42 | 41.76087 | -72.36409 | 16150 ft | 267 kts | 121° |
| 2026-04-27 22:42 | 41.74982 | -72.34424 | 15916 ft | 265 kts | 121° |
| 2026-04-27 22:42 | 41.73883 | -72.32453 | 15644 ft | 264 kts | 121° |
| 2026-04-27 22:42 | 41.72767 | -72.30446 | 15114 ft | 275 kts | 121° |
| 2026-04-27 22:43 | 41.71612 | -72.28369 | 14710 ft | 280 kts | 122° |
| 2026-04-27 22:43 | 41.70442 | -72.26277 | 14447 ft | 279 kts | 122° |
| 2026-04-27 22:43 | 41.69283 | -72.24209 | 14248 ft | 276 kts | 122° |
| 2026-04-27 22:43 | 41.68150 | -72.22190 | 14054 ft | 272 kts | 122° |
| 2026-04-27 22:44 | 41.67019 | -72.20174 | 13758 ft | 269 kts | 122° |
| 2026-04-27 22:44 | 41.65901 | -72.18183 | 13326 ft | 268 kts | 122° |
| 2026-04-27 22:44 | 41.64784 | -72.16190 | 12880 ft | 267 kts | 122° |
| 2026-04-27 22:44 | 41.63675 | -72.14216 | 12478 ft | 264 kts | 122° |
| 2026-04-27 22:45 | 41.62576 | -72.12259 | 12080 ft | 262 kts | 122° |
| 2026-04-27 22:45 | 41.61487 | -72.10320 | 11677 ft | 260 kts | 122° |
| 2026-04-27 22:45 | 41.60406 | -72.08396 | 11292 ft | 258 kts | 122° |
| 2026-04-27 22:45 | 41.59329 | -72.06480 | 10894 ft | 257 kts | 122° |
| 2026-04-27 22:46 | 41.58268 | -72.04597 | 10685 ft | 247 kts | 122° |
| 2026-04-27 22:46 | 41.57262 | -72.02818 | 10573 ft | 234 kts | 121° |
| 2026-04-27 22:46 | 41.56292 | -72.01100 | 10280 ft | 230 kts | 121° |
| 2026-04-27 22:46 | 41.55413 | -71.99448 | 9940 ft | 226 kts | 113° |
| 2026-04-27 22:47 | 41.54804 | -71.97550 | 9564 ft | 219 kts | 100° |
| 2026-04-27 22:47 | 41.54550 | -71.95578 | 9198 ft | 214 kts | 88° |
| 2026-04-27 22:47 | 41.54197 | -71.93649 | 8815 ft | 222 kts | 115° |
| 2026-04-27 22:47 | 41.53379 | -71.91906 | 8509 ft | 218 kts | 115° |
| 2026-04-27 22:48 | 41.52662 | -71.90227 | 8436 ft | 200 kts | 111° |
| 2026-04-27 22:48 | 41.52020 | -71.88611 | 8111 ft | 196 kts | 110° |
| 2026-04-27 22:48 | 41.51409 | -71.86989 | 7807 ft | 194 kts | 109° |
| 2026-04-27 22:48 | 41.50820 | -71.85380 | 7456 ft | 192 kts | 108° |
| 2026-04-27 22:49 | 41.50246 | -71.83776 | 7101 ft | 191 kts | 108° |
| 2026-04-27 22:49 | 41.49872 | -71.82713 | 6868 ft | 190 kts | 108° |
| 2026-04-27 22:49 | 41.49318 | -71.81116 | 6527 ft | 189 kts | 107° |
| 2026-04-27 22:49 | 41.48773 | -71.79528 | 6150 ft | 188 kts | 107° |
| 2026-04-27 22:50 | 41.48238 | -71.77960 | 5829 ft | 185 kts | 107° |
| 2026-04-27 22:50 | 41.47707 | -71.76399 | 5456 ft | 185 kts | 108° |
| 2026-04-27 22:50 | 41.47178 | -71.74843 | 5118 ft | 183 kts | 108° |
| 2026-04-27 22:50 | 41.46656 | -71.73306 | 4843 ft | 178 kts | 108° |
| 2026-04-27 22:51 | 41.46179 | -71.71865 | 4725 ft | 162 kts | 101° |
| 2026-04-27 22:51 | 41.46222 | -71.70475 | 4412 ft | 149 kts | 68° |
| 2026-04-27 22:51 | 41.46477 | -71.69143 | 4085 ft | 149 kts | 73° |
| 2026-04-27 22:51 | 41.46698 | -71.67781 | 3742 ft | 150 kts | 73° |
| 2026-04-27 22:52 | 41.46921 | -71.66428 | 3445 ft | 149 kts | 73° |
| 2026-04-27 22:52 | 41.47163 | -71.65103 | 3126 ft | 146 kts | 63° |
| 2026-04-27 22:52 | 41.47723 | -71.63977 | 2788 ft | 146 kts | 54° |
| 2026-04-27 22:52 | 41.48409 | -71.63000 | 2429 ft | 146 kts | 33° |
| 2026-04-27 22:53 | 41.49264 | -71.62286 | 2153 ft | 144 kts | 35° |
| 2026-04-27 22:53 | 41.50121 | -71.61516 | 2145 ft | 153 kts | 34° |
| 2026-04-27 22:53 | 41.51015 | -71.60734 | 2099 ft | 149 kts | 33° |
| 2026-04-27 22:53 | 41.51859 | -71.60009 | 2095 ft | 144 kts | 33° |
| 2026-04-27 22:54 | 41.52706 | -71.59286 | 2091 ft | 147 kts | 34° |
| 2026-04-27 22:54 | 41.53626 | -71.58505 | 2118 ft | 164 kts | 34° |
| 2026-04-27 22:54 | 41.54599 | -71.57682 | 2101 ft | 165 kts | 33° |
| 2026-04-27 22:54 | 41.55566 | -71.56865 | 2091 ft | 164 kts | 33° |
| 2026-04-27 22:55 | 41.56567 | -71.56019 | 2118 ft | 176 kts | 34° |
| 2026-04-27 22:55 | 41.57609 | -71.55138 | 2091 ft | 178 kts | 33° |
| 2026-04-27 22:55 | 41.58653 | -71.54256 | 2013 ft | 175 kts | 33° |
| 2026-04-27 22:55 | 41.59673 | -71.53394 | 1998 ft | 172 kts | 33° |
| 2026-04-27 22:56 | 41.60690 | -71.52535 | 2011 ft | 174 kts | 33° |
| 2026-04-27 22:56 | 41.61711 | -71.51672 | 1995 ft | 170 kts | 33° |
| 2026-04-27 22:56 | 41.62637 | -71.50891 | 1984 ft | 144 kts | 34° |
| 2026-04-27 22:56 | 41.63438 | -71.50214 | 1831 ft | 130 kts | 34° |
| 2026-04-27 22:57 | 41.64196 | -71.49573 | 1679 ft | 129 kts | 34° |
| 2026-04-27 22:57 | 41.64938 | -71.48947 | 1492 ft | 127 kts | 34° |
| 2026-04-27 22:57 | 41.65688 | -71.48312 | 1348 ft | 129 kts | 34° |
| 2026-04-27 22:57 | 41.66447 | -71.47671 | 1173 ft | 128 kts | 33° |
| 2026-04-27 22:58 | 41.67195 | -71.47020 | 995 ft | 129 kts | 31° |
| 2026-04-27 22:58 | 41.67954 | -71.46382 | 815 ft | 128 kts | 35° |
| 2026-04-27 22:58 | 41.68724 | -71.45722 | 613 ft | 135 kts | 32° |
| 2026-04-27 22:58 | 41.69526 | -71.45086 | 485 ft | 135 kts | 33° |
| 2026-04-27 22:59 | 41.70313 | -71.44406 | 295 ft | 133 kts | 34° |
| 2026-04-27 22:59 | 41.71098 | -71.43742 | 110 ft | 131 kts | 30° |
| 2026-04-27 22:59 | 41.71827 | -71.43125 | 57 ft | 110 kts | 33° |
| 2026-04-27 22:59 | 41.72290 | -71.42737 | 56 ft | 55 kts | 32° |
| 2026-04-27 23:00 | 41.72431 | -71.42618 | 57 ft | 14 kts | 30° |
| 2026-04-27 23:00 | 41.72532 | -71.42569 | 51 ft | 17 kts | 349° |
| 2026-04-27 23:00 | 41.72632 | -71.42655 | 54 ft | 17 kts | 324° |
| 2026-04-27 23:01 | 41.72734 | -71.42757 | 56 ft | 20 kts | 327° |
| 2026-04-27 23:01 | 41.72843 | -71.42867 | 56 ft | 20 kts | 323° |
| 2026-04-27 23:01 | 41.72918 | -71.43008 | 59 ft | 19 kts | 277° |
| 2026-04-27 23:01 | 41.72900 | -71.43177 | 60 ft | 18 kts | 228° |
| 2026-04-27 23:02 | 41.72820 | -71.43198 | 61 ft | 0 kts | 153° |
| 2026-04-27 23:02 | 41.72816 | -71.43200 | 61 ft | 1 kts | 194° |
| 2026-04-27 23:02 | 41.72818 | -71.43223 | 66 ft | 4 kts | 300° |
| 2026-04-27 23:02 | 41.72860 | -71.43283 | 62 ft | 11 kts | 295° |
| 2026-04-27 23:03 | 41.72853 | -71.43386 | 63 ft | 10 kts | 236° |
| 2026-04-27 23:03 | 41.72806 | -71.43394 | 62 ft | 0 kts | 173° |